Time;durP1;ratioP1;P1;durP2;ratioP2;P2;SDS_P1;SDS_P2;PMS_P1;PMS_P2;Temp;Humidity;BMP_temperature;BMP_pressure;BME280_temperature;BME280_humidity;BME280_pressure;Samples;Min_cycle;Max_cycle;Signal;HPM_P1;HPM_P2
2023/04/18 00:01:22;;;;;;;13.00;9.00;;;;;;;;;;5015648;28;20191;-67
2023/04/18 00:03:49;;;;;;;14.27;8.77;;;;;;;;;;5015358;28;20697;-68
2023/04/18 00:06:15;;;;;;;12.80;8.77;;;;;;;;;;5015675;28;20234;-69
2023/04/18 00:08:41;;;;;;;14.37;9.10;;;;;;;;;;5015316;28;20196;-69
2023/04/18 00:11:07;;;;;;;8.80;6.90;;;;;;;;;;5015261;28;20670;-69
2023/04/18 00:13:34;;;;;;;12.03;8.97;;;;;;;;;;5015287;28;20180;-70
2023/04/18 00:16:01;;;;;;;12.70;8.70;;;;;;;;;;5015480;28;20180;-70
2023/04/18 00:18:27;;;;;;;10.63;8.83;;;;;;;;;;4997407;28;20257;-69
2023/04/18 00:20:54;;;;;;;13.00;9.17;;;;;;;;;;5015117;28;20187;-70
2023/04/18 00:23:21;;;;;;;11.77;7.07;;;;;;;;;;5015487;28;20204;-69
2023/04/18 00:25:47;;;;;;;11.97;8.83;;;;;;;;;;5015184;28;20179;-69
2023/04/18 00:28:13;;;;;;;10.23;7.43;;;;;;;;;;5014908;28;20200;-68
2023/04/18 00:30:39;;;;;;;8.83;6.97;;;;;;;;;;5015113;28;20347;-69
2023/04/18 00:33:05;;;;;;;9.07;7.80;;;;;;;;;;4997776;28;20201;-69
2023/04/18 00:35:31;;;;;;;14.50;9.10;;;;;;;;;;5015510;28;20670;-69
2023/04/18 00:37:57;;;;;;;9.10;7.63;;;;;;;;;;4997413;28;20752;-73
2023/04/18 00:40:24;;;;;;;9.73;8.73;;;;;;;;;;5014860;28;20223;-69
2023/04/18 00:42:50;;;;;;;7.00;6.10;;;;;;;;;;4998929;28;20210;-67
2023/04/18 00:45:16;;;;;;;11.83;9.37;;;;;;;;;;5015663;28;20263;-69
2023/04/18 00:47:42;;;;;;;11.00;6.87;;;;;;;;;;5014711;28;20219;-69
2023/04/18 00:50:09;;;;;;;9.80;8.87;;;;;;;;;;5014631;28;20176;-70
2023/04/18 00:52:35;;;;;;;11.70;9.00;;;;;;;;;;5015856;28;20179;-69
2023/04/18 00:55:02;;;;;;;10.70;9.20;;;;;;;;;;5014995;28;20179;-69
2023/04/18 00:57:29;;;;;;;13.03;9.97;;;;;;;;;;4998560;28;20257;-68
2023/04/18 00:59:55;;;;;;;8.77;7.60;;;;;;;;;;5015950;28;20176;-68
2023/04/18 01:02:21;;;;;;;12.63;8.80;;;;;;;;;;4998622;28;20582;-68
2023/04/18 01:04:47;;;;;;;11.60;8.07;;;;;;;;;;4997896;28;20693;-68
2023/04/18 01:07:14;;;;;;;12.20;9.30;;;;;;;;;;4998556;28;20191;-67
2023/04/18 01:09:40;;;;;;;9.10;7.67;;;;;;;;;;4998199;28;20180;-67
2023/04/18 01:12:06;;;;;;;14.97;8.57;;;;;;;;;;5015677;28;20186;-67
2023/04/18 01:14:31;;;;;;;18.33;10.57;;;;;;;;;;5016699;28;20211;-67
2023/04/18 01:16:58;;;;;;;9.43;8.43;;;;;;;;;;5016556;28;20634;-67
2023/04/18 01:19:24;;;;;;;9.87;8.47;;;;;;;;;;5015132;28;20179;-68
2023/04/18 01:21:52;;;;;;;10.90;8.50;;;;;;;;;;5015614;28;20589;-67
2023/04/18 01:24:18;;;;;;;8.23;6.60;;;;;;;;;;4998250;28;20302;-67
2023/04/18 01:26:48;;;;;;;8.27;6.67;;;;;;;;;;5016428;28;20176;-67
2023/04/18 01:29:14;;;;;;;12.80;7.30;;;;;;;;;;5016283;28;20196;-67
2023/04/18 01:31:40;;;;;;;9.47;8.20;;;;;;;;;;5016806;28;20525;-67
2023/04/18 01:34:07;;;;;;;12.30;7.07;;;;;;;;;;4998613;28;20674;-66
2023/04/18 01:36:33;;;;;;;8.40;6.83;;;;;;;;;;5016442;28;20180;-67
2023/04/18 01:38:59;;;;;;;8.60;6.97;;;;;;;;;;5016525;28;20235;-67
2023/04/18 01:41:27;;;;;;;10.33;8.47;;;;;;;;;;5016322;28;20255;-67
2023/04/18 01:43:53;;;;;;;9.27;8.20;;;;;;;;;;5016223;28;20203;-67
2023/04/18 01:46:19;;;;;;;8.83;7.50;;;;;;;;;;5015336;28;20183;-67
2023/04/18 01:48:45;;;;;;;10.60;7.93;;;;;;;;;;5015362;28;20203;-67
2023/04/18 01:51:11;;;;;;;8.77;6.87;;;;;;;;;;5016314;28;20176;-67
2023/04/18 01:53:37;;;;;;;9.57;7.97;;;;;;;;;;5015508;28;20194;-66
2023/04/18 01:56:04;;;;;;;9.27;8.37;;;;;;;;;;5015590;28;20184;-67
2023/04/18 01:58:29;;;;;;;9.27;8.27;;;;;;;;;;4997450;28;20291;-67
2023/04/18 02:00:58;;;;;;;8.87;6.67;;;;;;;;;;4998070;28;20269;-66
2023/04/18 02:03:24;;;;;;;8.70;7.80;;;;;;;;;;5016028;28;20358;-67
2023/04/18 02:05:51;;;;;;;8.70;7.80;;;;;;;;;;5016333;28;20178;-67
2023/04/18 02:08:17;;;;;;;8.83;7.93;;;;;;;;;;4999125;28;20759;-67
2023/04/18 02:10:43;;;;;;;8.60;7.30;;;;;;;;;;5016088;28;20245;-68
2023/04/18 02:13:09;;;;;;;8.33;7.20;;;;;;;;;;5015831;28;20719;-68
2023/04/18 02:15:35;;;;;;;8.97;7.47;;;;;;;;;;5015840;28;20271;-68
2023/04/18 02:18:02;;;;;;;10.77;7.70;;;;;;;;;;5015536;28;20235;-67
2023/04/18 02:20:30;;;;;;;8.27;7.47;;;;;;;;;;4998096;28;20187;-68
2023/04/18 02:22:56;;;;;;;6.77;5.77;;;;;;;;;;5015253;28;20748;-67
2023/04/18 02:25:25;;;;;;;8.27;6.83;;;;;;;;;;5016183;28;20176;-66
2023/04/18 02:27:51;;;;;;;10.90;6.70;;;;;;;;;;4998253;28;20207;-67
2023/04/18 02:30:17;;;;;;;8.80;7.90;;;;;;;;;;5016270;28;20182;-66
2023/04/18 02:32:43;;;;;;;9.13;7.73;;;;;;;;;;5015638;28;20236;-67
2023/04/18 02:35:11;;;;;;;8.70;7.75;;;;;;;;;;4997492;28;20395;-66
2023/04/18 02:37:37;;;;;;;8.83;6.20;;;;;;;;;;4997766;28;20618;-67
2023/04/18 02:40:03;;;;;;;6.87;5.83;;;;;;;;;;4997643;28;20191;-67
2023/04/18 02:42:30;;;;;;;7.00;5.50;;;;;;;;;;5015384;28;20199;-66
2023/04/18 02:44:56;;;;;;;8.40;7.00;;;;;;;;;;5015470;28;20718;-66
2023/04/18 02:47:22;;;;;;;7.83;7.03;;;;;;;;;;5015215;28;20239;-66
2023/04/18 02:49:48;;;;;;;7.87;7.07;;;;;;;;;;4997603;28;20176;-66
2023/04/18 02:52:14;;;;;;;7.43;6.63;;;;;;;;;;5015258;28;20183;-67
2023/04/18 02:54:40;;;;;;;6.93;6.27;;;;;;;;;;5015101;28;20176;-67
2023/04/18 02:57:06;;;;;;;7.20;6.50;;;;;;;;;;4997305;28;20555;-66
2023/04/18 02:59:32;;;;;;;8.43;7.53;;;;;;;;;;4997474;28;20180;-67
2023/04/18 03:01:58;;;;;;;10.43;6.53;;;;;;;;;;5015621;28;20194;-67
2023/04/18 03:04:24;;;;;;;7.27;6.57;;;;;;;;;;5014772;28;20211;-67
2023/04/18 03:06:50;;;;;;;8.03;7.23;;;;;;;;;;5014068;28;20664;-67
2023/04/18 03:09:16;;;;;;;8.83;7.07;;;;;;;;;;5013930;28;20196;-67
2023/04/18 03:11:42;;;;;;;7.53;6.53;;;;;;;;;;5016046;28;20546;-67
2023/04/18 03:14:08;;;;;;;9.23;6.80;;;;;;;;;;5019217;28;20188;-68
2023/04/18 03:16:34;;;;;;;7.30;6.50;;;;;;;;;;5018714;28;20179;-67
2023/04/18 03:19:00;;;;;;;7.87;6.40;;;;;;;;;;5018499;28;20211;-67
2023/04/18 03:21:26;;;;;;;9.93;7.17;;;;;;;;;;5018284;28;20180;-66
2023/04/18 03:23:52;;;;;;;7.67;6.63;;;;;;;;;;5018326;28;20678;-67
2023/04/18 03:26:18;;;;;;;8.93;8.03;;;;;;;;;;5018451;28;20199;-67
2023/04/18 03:28:44;;;;;;;9.67;7.63;;;;;;;;;;5018861;28;20227;-67
2023/04/18 03:31:11;;;;;;;10.30;6.97;;;;;;;;;;5018826;28;20634;-66
2023/04/18 03:33:38;;;;;;;8.00;7.00;;;;;;;;;;5018922;28;20196;-66
2023/04/18 03:36:04;;;;;;;8.80;6.23;;;;;;;;;;5018456;28;20180;-67
2023/04/18 03:38:30;;;;;;;8.07;7.23;;;;;;;;;;5018287;28;20196;-67
2023/04/18 03:40:56;;;;;;;8.87;7.57;;;;;;;;;;5000956;28;20271;-67
2023/04/18 03:43:22;;;;;;;9.67;7.83;;;;;;;;;;5018707;28;20294;-67
2023/04/18 03:45:49;;;;;;;10.33;8.77;;;;;;;;;;5018343;28;20172;-68
2023/04/18 03:48:14;;;;;;;9.50;7.73;;;;;;;;;;5000081;28;20219;-67
2023/04/18 03:50:40;;;;;;;9.60;8.60;;;;;;;;;;5000307;28;20222;-67
2023/04/18 03:53:06;;;;;;;11.20;8.23;;;;;;;;;;5018201;28;20190;-67
2023/04/18 03:55:32;;;;;;;11.23;8.30;;;;;;;;;;5016448;28;20286;-67
2023/04/18 03:57:58;;;;;;;10.57;7.37;;;;;;;;;;5017633;28;20597;-67
2023/04/18 04:00:25;;;;;;;8.30;7.30;;;;;;;;;;5018032;28;20176;-67
2023/04/18 04:02:51;;;;;;;8.07;6.97;;;;;;;;;;5000244;28;20184;-67
2023/04/18 04:05:17;;;;;;;9.63;7.10;;;;;;;;;;5017520;28;20646;-66
2023/04/18 04:07:43;;;;;;;9.07;8.13;;;;;;;;;;5017356;28;20192;-67
2023/04/18 04:10:09;;;;;;;8.70;7.30;;;;;;;;;;5017152;28;20178;-68
2023/04/18 04:12:35;;;;;;;9.30;7.20;;;;;;;;;;5016556;28;20180;-69
2023/04/18 04:15:01;;;;;;;12.17;9.00;;;;;;;;;;5017488;28;20183;-67
2023/04/18 04:17:27;;;;;;;7.63;6.20;;;;;;;;;;5017442;28;20270;-67
2023/04/18 04:19:53;;;;;;;9.17;8.20;;;;;;;;;;5017897;28;20552;-67
2023/04/18 04:22:19;;;;;;;7.77;5.83;;;;;;;;;;5017962;28;20539;-67
2023/04/18 04:24:45;;;;;;;10.83;7.37;;;;;;;;;;5017608;28;20575;-67
2023/04/18 04:27:12;;;;;;;6.23;5.37;;;;;;;;;;5017473;28;20176;-67
2023/04/18 04:29:38;;;;;;;7.27;6.40;;;;;;;;;;5017369;28;20172;-67
2023/04/18 04:32:05;;;;;;;9.27;7.17;;;;;;;;;;4999755;28;20179;-67
2023/04/18 04:34:31;;;;;;;8.90;7.60;;;;;;;;;;5017206;28;20189;-67
2023/04/18 04:36:57;;;;;;;8.40;7.17;;;;;;;;;;5017268;28;20184;-67
2023/04/18 04:39:23;;;;;;;12.80;8.60;;;;;;;;;;5000310;28;20643;-71
2023/04/18 04:41:52;;;;;;;11.57;8.60;;;;;;;;;;5016954;28;20271;-67
2023/04/18 04:44:18;;;;;;;9.97;8.97;;;;;;;;;;4999487;28;20207;-67
2023/04/18 04:46:44;;;;;;;10.90;8.40;;;;;;;;;;5016938;28;20176;-67
2023/04/18 04:49:10;;;;;;;14.20;9.07;;;;;;;;;;5016995;28;20211;-68
2023/04/18 04:51:36;;;;;;;10.80;9.30;;;;;;;;;;5016733;28;20183;-67
2023/04/18 04:54:02;;;;;;;9.37;7.70;;;;;;;;;;5017350;28;20190;-67
2023/04/18 04:56:28;;;;;;;10.13;9.13;;;;;;;;;;5017046;28;20306;-67
2023/04/18 04:58:55;;;;;;;11.23;9.27;;;;;;;;;;4999111;28;20216;-66
2023/04/18 05:01:21;;;;;;;11.77;8.73;;;;;;;;;;5017806;28;20179;-67
2023/04/18 05:03:48;;;;;;;8.37;7.10;;;;;;;;;;5016755;28;20207;-66
2023/04/18 05:06:19;;;;;;;16.80;8.83;;;;;;;;;;5017049;28;20594;-67
2023/04/18 05:08:45;;;;;;;11.40;10.10;;;;;;;;;;5016908;28;20187;-66
2023/04/18 05:11:11;;;;;;;13.93;11.00;;;;;;;;;;5016804;28;20172;-67
2023/04/18 05:13:37;;;;;;;13.40;9.77;;;;;;;;;;5016572;28;20668;-67
2023/04/18 05:16:03;;;;;;;14.40;10.10;;;;;;;;;;4998974;28;20180;-66
2023/04/18 05:18:29;;;;;;;10.60;9.40;;;;;;;;;;5015962;28;20203;-67
2023/04/18 05:20:55;;;;;;;12.20;9.97;;;;;;;;;;5016477;28;20734;-67
2023/04/18 05:23:21;;;;;;;11.80;9.53;;;;;;;;;;5016120;28;20235;-69
2023/04/18 05:25:47;;;;;;;11.23;8.50;;;;;;;;;;5016396;28;20183;-68
2023/04/18 05:28:13;;;;;;;8.67;6.57;;;;;;;;;;5016465;28;20196;-66
2023/04/18 05:30:39;;;;;;;12.23;9.43;;;;;;;;;;4998775;28;20553;-66
2023/04/18 05:33:05;;;;;;;15.03;9.70;;;;;;;;;;4998985;28;20188;-68
2023/04/18 05:35:31;;;;;;;20.13;9.53;;;;;;;;;;4997343;28;20183;-67
2023/04/18 05:37:57;;;;;;;12.93;8.83;;;;;;;;;;4997276;28;20204;-66
2023/04/18 05:40:24;;;;;;;16.07;10.83;;;;;;;;;;5014609;28;20266;-68
2023/04/18 05:42:49;;;;;;;13.23;10.10;;;;;;;;;;5014314;28;20184;-67
2023/04/18 05:45:15;;;;;;;9.10;8.13;;;;;;;;;;4997037;28;20187;-67
2023/04/18 05:47:41;;;;;;;12.53;10.33;;;;;;;;;;4997805;28;20290;-67
2023/04/18 05:50:08;;;;;;;10.17;8.73;;;;;;;;;;4998327;28;20176;-68
2023/04/18 05:52:36;;;;;;;14.27;9.30;;;;;;;;;;5016195;28;20183;-67
2023/04/18 05:55:02;;;;;;;13.77;9.97;;;;;;;;;;5016070;28;20179;-66
2023/04/18 05:57:28;;;;;;;11.93;9.10;;;;;;;;;;5015805;28;20195;-67
2023/04/18 05:59:54;;;;;;;10.20;8.97;;;;;;;;;;4998493;28;20294;-67
2023/04/18 06:02:20;;;;;;;11.20;8.90;;;;;;;;;;5016020;28;20252;-68
2023/04/18 06:04:47;;;;;;;13.33;9.93;;;;;;;;;;5014982;28;20306;-69
2023/04/18 06:07:13;;;;;;;13.37;11.27;;;;;;;;;;4997661;28;20186;-68
2023/04/18 06:09:39;;;;;;;10.20;8.87;;;;;;;;;;5015093;28;20184;-66
2023/04/18 06:12:05;;;;;;;12.13;10.63;;;;;;;;;;4997859;28;20191;-67
2023/04/18 06:14:31;;;;;;;10.57;8.47;;;;;;;;;;4997433;28;20646;-67
2023/04/18 06:16:57;;;;;;;10.13;8.40;;;;;;;;;;5015709;28;20187;-68
2023/04/18 06:19:23;;;;;;;12.80;10.23;;;;;;;;;;4997366;28;20256;-69
2023/04/18 06:21:49;;;;;;;17.40;10.10;;;;;;;;;;5013808;28;20242;-68
2023/04/18 06:24:15;;;;;;;16.97;10.10;;;;;;;;;;5013317;28;20212;-68
2023/04/18 06:26:41;;;;;;;13.60;8.10;;;;;;;;;;5013420;28;20234;-69
2023/04/18 06:29:07;;;;;;;14.00;9.97;;;;;;;;;;5013572;28;20676;-69
2023/04/18 06:31:33;;;;;;;9.97;8.27;;;;;;;;;;5015965;28;20708;-68
2023/04/18 06:33:59;;;;;;;16.37;10.83;;;;;;;;;;5015965;28;20184;-68
2023/04/18 06:36:26;;;;;;;15.37;10.70;;;;;;;;;;5014087;28;20207;-69
2023/04/18 06:38:52;;;;;;;18.50;10.53;;;;;;;;;;5014005;28;20206;-69
2023/04/18 06:41:18;;;;;;;10.73;8.00;;;;;;;;;;5013637;28;20176;-69
2023/04/18 06:43:44;;;;;;;16.37;10.03;;;;;;;;;;4996248;28;20585;-68
2023/04/18 06:46:10;;;;;;;10.60;5.70;;;;;;;;;;5017168;28;20255;-69
2023/04/18 06:48:36;;;;;;;14.70;7.27;;;;;;;;;;5020775;28;20219;-69
2023/04/18 06:51:02;;;;;;;12.63;8.57;;;;;;;;;;5018014;28;20176;-70
2023/04/18 06:53:28;;;;;;;13.00;7.70;;;;;;;;;;5018093;28;20267;-68
2023/04/18 06:55:54;;;;;;;11.77;8.07;;;;;;;;;;5017522;28;20219;-68
2023/04/18 06:58:20;;;;;;;13.67;7.97;;;;;;;;;;5017040;28;20203;-68
2023/04/18 07:00:50;;;;;;;9.20;7.83;;;;;;;;;;5017290;28;20184;-69
2023/04/18 07:03:16;;;;;;;10.00;7.90;;;;;;;;;;5000697;28;20203;-68
2023/04/18 07:05:42;;;;;;;8.93;7.30;;;;;;;;;;5001013;28;20180;-70
2023/04/18 07:08:08;;;;;;;9.97;8.80;;;;;;;;;;5017379;28;20195;-70
2023/04/18 07:10:34;;;;;;;10.67;6.97;;;;;;;;;;5033006;23;20175;-71
2023/04/18 07:13:00;;;;;;;10.87;8.73;;;;;;;;;;5018365;28;20179;-71
2023/04/18 07:15:26;;;;;;;17.13;10.87;;;;;;;;;;5036098;28;20681;-72
2023/04/18 07:17:52;;;;;;;14.13;10.60;;;;;;;;;;5036676;28;20548;-72
2023/04/18 07:20:18;;;;;;;18.07;10.57;;;;;;;;;;5018113;28;20206;-71
2023/04/18 07:22:44;;;;;;;15.87;8.07;;;;;;;;;;5018212;28;20649;-71
2023/04/18 07:25:10;;;;;;;14.57;11.67;;;;;;;;;;5018115;28;20261;-72
2023/04/18 07:27:36;;;;;;;11.33;9.60;;;;;;;;;;5018069;28;20183;-72
2023/04/18 07:30:04;;;;;;;10.20;9.13;;;;;;;;;;5018498;28;20740;-71
2023/04/18 07:32:30;;;;;;;10.20;7.60;;;;;;;;;;5035639;28;20195;-72
2023/04/18 07:34:56;;;;;;;13.00;7.60;;;;;;;;;;5035709;28;20262;-71
2023/04/18 07:37:22;;;;;;;9.60;8.00;;;;;;;;;;5035595;28;20184;-71
2023/04/18 07:39:49;;;;;;;12.63;9.80;;;;;;;;;;5035604;28;20213;-71
2023/04/18 07:42:14;;;;;;;10.03;8.10;;;;;;;;;;5035498;28;20199;-72
2023/04/18 07:44:40;;;;;;;16.27;9.87;;;;;;;;;;5017778;28;20708;-72
2023/04/18 07:47:10;;;;;;;11.20;9.60;;;;;;;;;;5018061;28;20660;-72
2023/04/18 07:49:36;;;;;;;10.10;7.63;;;;;;;;;;5018554;28;20646;-72
2023/04/18 07:52:02;;;;;;;10.83;9.33;;;;;;;;;;5036091;28;20563;-72
2023/04/18 07:54:29;;;;;;;9.67;8.67;;;;;;;;;;5018051;28;20183;-71
2023/04/18 07:56:55;;;;;;;17.67;11.57;;;;;;;;;;5017102;28;20285;-69
2023/04/18 07:59:21;;;;;;;16.27;11.23;;;;;;;;;;5036215;28;20171;-71
2023/04/18 08:01:47;;;;;;;14.17;11.53;;;;;;;;;;5036492;28;20207;-71
2023/04/18 08:04:13;;;;;;;11.63;10.43;;;;;;;;;;5035981;28;20207;-72
2023/04/18 08:06:39;;;;;;;14.13;10.97;;;;;;;;;;5017402;28;20183;-69
2023/04/18 08:09:05;;;;;;;10.23;9.13;;;;;;;;;;5034925;28;20671;-71
2023/04/18 08:11:32;;;;;;;12.67;11.20;;;;;;;;;;5017191;28;20214;-71
2023/04/18 08:13:58;;;;;;;13.57;11.00;;;;;;;;;;5034948;28;20190;-70
2023/04/18 08:16:24;;;;;;;13.00;10.30;;;;;;;;;;5035501;28;20609;-72
2023/04/18 08:18:50;;;;;;;13.37;11.93;;;;;;;;;;5017277;28;20665;-73
2023/04/18 08:21:16;;;;;;;13.10;10.53;;;;;;;;;;5016962;28;20206;-71
2023/04/18 08:23:42;;;;;;;13.97;12.20;;;;;;;;;;5034717;28;20202;-69
2023/04/18 08:26:08;;;;;;;16.93;14.00;;;;;;;;;;5016826;28;20228;-72
2023/04/18 08:28:34;;;;;;;16.47;14.23;;;;;;;;;;5034664;28;20258;-69
2023/04/18 08:31:00;;;;;;;15.73;13.17;;;;;;;;;;5034932;28;20195;-72
2023/04/18 08:33:27;;;;;;;17.90;14.27;;;;;;;;;;5034614;28;20179;-72
2023/04/18 08:35:53;;;;;;;9.87;8.73;;;;;;;;;;5034671;28;20201;-71
2023/04/18 08:38:19;;;;;;;16.10;14.27;;;;;;;;;;5034426;28;20179;-71
2023/04/18 08:40:45;;;;;;;17.20;14.30;;;;;;;;;;5034571;28;20203;-71
2023/04/18 08:43:15;;;;;;;16.90;14.93;;;;;;;;;;5016591;28;20751;-71
2023/04/18 08:45:42;;;;;;;15.80;13.43;;;;;;;;;;5016596;28;20225;-72
2023/04/18 08:48:11;;;;;;;15.90;14.27;;;;;;;;;;5016476;28;20185;-71
2023/04/18 08:50:38;;;;;;;15.87;13.80;;;;;;;;;;5034205;28;20201;-70
2023/04/18 08:53:04;;;;;;;16.23;12.80;;;;;;;;;;5016553;28;20622;-71
2023/04/18 08:55:32;;;;;;;17.87;14.03;;;;;;;;;;5034180;28;20183;-72
2023/04/18 08:57:58;;;;;;;19.87;13.97;;;;;;;;;;5016370;28;20186;-71
2023/04/18 09:00:26;;;;;;;13.30;11.90;;;;;;;;;;5033987;28;20198;-70
2023/04/18 09:02:55;;;;;;;26.90;15.37;;;;;;;;;;5034075;28;20171;-71
2023/04/18 09:05:21;;;;;;;13.30;11.33;;;;;;;;;;5034232;28;20656;-71
2023/04/18 09:07:48;;;;;;;18.33;14.50;;;;;;;;;;5033991;28;20182;-71
2023/04/18 09:10:25;;;;;;;18.53;14.90;;;;;;;;;;5016133;28;20269;-71
2023/04/18 09:12:51;;;;;;;16.80;14.50;;;;;;;;;;5034008;28;20582;-69
2023/04/18 09:15:19;;;;;;;15.70;13.83;;;;;;;;;;5033891;28;20183;-69
2023/04/18 09:17:49;;;;;;;16.90;12.83;;;;;;;;;;5016001;28;20179;-71
2023/04/18 09:20:34;;;;;;;13.40;9.63;;;;;;;;;;5016044;28;20257;-71
2023/04/18 09:23:13;;;;;;;16.20;13.67;;;;;;;;;;5033590;28;20270;-71
2023/04/18 09:25:43;;;;;;;15.37;12.33;;;;;;;;;;5015961;28;20298;-71
2023/04/18 09:28:22;;;;;;;13.70;12.10;;;;;;;;;;5015871;28;20198;-71
2023/04/18 09:30:50;;;;;;;15.87;13.53;;;;;;;;;;5016099;28;20212;-69
2023/04/18 09:33:16;;;;;;;16.83;15.00;;;;;;;;;;5015866;28;20183;-71
2023/04/18 09:35:42;;;;;;;18.07;13.83;;;;;;;;;;5033674;28;20182;-72
2023/04/18 09:38:09;;;;;;;17.63;12.87;;;;;;;;;;5015692;28;20595;-71
2023/04/18 09:40:35;;;;;;;14.20;11.10;;;;;;;;;;5015604;28;20211;-71
2023/04/18 09:43:17;;;;;;;15.77;12.03;;;;;;;;;;5015541;28;20245;-71
2023/04/18 09:45:43;;;;;;;18.10;15.97;;;;;;;;;;5015713;28;20612;-71
2023/04/18 09:48:09;;;;;;;16.90;14.37;;;;;;;;;;5015618;28;20183;-71
2023/04/18 09:50:35;;;;;;;14.07;11.20;;;;;;;;;;5015504;28;20203;-71
2023/04/18 09:53:01;;;;;;;17.07;14.60;;;;;;;;;;5015615;28;20278;-71
2023/04/18 09:55:28;;;;;;;19.20;13.13;;;;;;;;;;5033198;28;20180;-71
2023/04/18 09:57:54;;;;;;;18.47;15.10;;;;;;;;;;5033485;28;20171;-71
2023/04/18 10:00:25;;;;;;;16.47;13.83;;;;;;;;;;5033372;28;20182;-71
2023/04/18 10:02:57;;;;;;;17.87;14.90;;;;;;;;;;5015312;28;20183;-71
2023/04/18 10:05:27;;;;;;;18.93;15.50;;;;;;;;;;5033125;28;20688;-72
2023/04/18 10:07:53;;;;;;;19.10;13.03;;;;;;;;;;5033421;28;20180;-72
2023/04/18 10:10:19;;;;;;;18.80;13.10;;;;;;;;;;5032977;28;20544;-72
2023/04/18 10:12:47;;;;;;;17.87;15.07;;;;;;;;;;5015423;28;20649;-72
2023/04/18 10:15:14;;;;;;;17.13;10.97;;;;;;;;;;5033133;28;20179;-72
2023/04/18 10:17:42;;;;;;;17.50;14.70;;;;;;;;;;5033073;28;20641;-71
2023/04/18 10:20:11;;;;;;;13.77;11.40;;;;;;;;;;5016087;28;20211;-72
2023/04/18 10:22:37;;;;;;;16.87;13.13;;;;;;;;;;5019303;28;20182;-72
2023/04/18 10:25:03;;;;;;;16.43;14.23;;;;;;;;;;5019382;28;20695;-72
2023/04/18 10:27:48;;;;;;;15.97;13.40;;;;;;;;;;5037156;28;20673;-72
2023/04/18 10:30:14;;;;;;;18.17;14.87;;;;;;;;;;5019336;28;20179;-69
2023/04/18 10:32:40;;;;;;;16.10;13.37;;;;;;;;;;5019481;28;20625;-71
2023/04/18 10:35:06;;;;;;;21.27;15.67;;;;;;;;;;5037884;28;20218;-72
2023/04/18 10:37:33;;;;;;;14.30;10.73;;;;;;;;;;5037258;28;20269;-72
2023/04/18 10:40:04;;;;;;;14.80;12.57;;;;;;;;;;5039254;28;20194;-71
2023/04/18 10:42:49;;;;;;;19.87;15.67;;;;;;;;;;5019439;28;20271;-69
2023/04/18 10:45:19;;;;;;;18.97;15.17;;;;;;;;;;5019109;28;20187;-69
2023/04/18 10:47:45;;;;;;;13.53;9.40;;;;;;;;;;5036655;28;20181;-68
2023/04/18 10:50:11;;;;;;;17.23;14.43;;;;;;;;;;5036681;28;20175;-69
2023/04/18 10:52:37;;;;;;;14.13;11.00;;;;;;;;;;5036517;28;20222;-69
2023/04/18 10:55:08;;;;;;;15.13;12.90;;;;;;;;;;5037109;28;20221;-68
2023/04/18 10:57:44;;;;;;;17.80;13.97;;;;;;;;;;5018872;28;20290;-68
2023/04/18 11:00:12;;;;;;;16.90;11.70;;;;;;;;;;5018611;28;20624;-68
2023/04/18 11:02:39;;;;;;;13.73;11.47;;;;;;;;;;5018654;28;20646;-69
2023/04/18 11:05:05;;;;;;;17.37;13.07;;;;;;;;;;5036470;28;20203;-71
2023/04/18 11:07:32;;;;;;;16.77;12.97;;;;;;;;;;5018536;28;20175;-70
2023/04/18 11:09:59;;;;;;;15.03;10.70;;;;;;;;;;5036507;28;20175;-70
2023/04/18 11:12:28;;;;;;;13.93;10.73;;;;;;;;;;5018498;28;20587;-71
2023/04/18 11:14:54;;;;;;;16.73;13.87;;;;;;;;;;5036075;28;20176;-71
2023/04/18 11:17:22;;;;;;;16.10;11.63;;;;;;;;;;5018258;28;20322;-71
2023/04/18 11:19:48;;;;;;;16.57;14.30;;;;;;;;;;5035932;28;20181;-69
2023/04/18 11:22:16;;;;;;;17.00;12.93;;;;;;;;;;5018899;28;20293;-71
2023/04/18 11:24:42;;;;;;;20.00;15.33;;;;;;;;;;5035921;28;20673;-70
2023/04/18 11:27:08;;;;;;;16.17;14.07;;;;;;;;;;5018743;28;20234;-71
2023/04/18 11:29:34;;;;;;;18.60;12.23;;;;;;;;;;5036422;28;20175;-71
2023/04/18 11:32:00;;;;;;;14.50;11.33;;;;;;;;;;5034830;28;20603;-68
2023/04/18 11:34:30;;;;;;;21.07;16.90;;;;;;;;;;5036467;28;20237;-67
2023/04/18 11:36:56;;;;;;;18.47;15.53;;;;;;;;;;5036093;28;20640;-68
2023/04/18 11:39:22;;;;;;;17.37;13.93;;;;;;;;;;5018123;28;20183;-68
2023/04/18 11:41:52;;;;;;;17.03;13.30;;;;;;;;;;5035588;28;20669;-70
2023/04/18 11:44:22;;;;;;;20.17;14.57;;;;;;;;;;5035441;28;20695;-69
2023/04/18 11:46:50;;;;;;;17.33;13.37;;;;;;;;;;5035831;28;20152;-69
2023/04/18 11:49:29;;;;;;;15.30;13.40;;;;;;;;;;5017942;28;20289;-69
2023/04/18 11:51:55;;;;;;;15.93;11.50;;;;;;;;;;5017681;28;20668;-68
2023/04/18 11:54:37;;;;;;;22.23;13.30;;;;;;;;;;5017707;28;20183;-68
2023/04/18 11:57:03;;;;;;;18.00;14.23;;;;;;;;;;5035430;28;20175;-68
2023/04/18 11:59:29;;;;;;;19.37;13.87;;;;;;;;;;5035685;28;20624;-69
2023/04/18 12:02:00;;;;;;;19.70;15.80;;;;;;;;;;5017406;28;20210;-69
2023/04/18 12:04:26;;;;;;;15.07;9.87;;;;;;;;;;5017453;28;20712;-68
2023/04/18 12:06:53;;;;;;;17.67;14.67;;;;;;;;;;5017585;28;20179;-69
2023/04/18 12:09:20;;;;;;;17.57;12.33;;;;;;;;;;5035273;28;20565;-68
2023/04/18 12:11:59;;;;;;;19.37;13.50;;;;;;;;;;5034818;28;20691;-68
2023/04/18 12:14:26;;;;;;;16.27;12.70;;;;;;;;;;5017327;28;20186;-69
2023/04/18 12:16:52;;;;;;;14.67;12.17;;;;;;;;;;5017050;28;20649;-69
2023/04/18 12:19:19;;;;;;;19.40;14.37;;;;;;;;;;5017078;28;20186;-69
2023/04/18 12:21:55;;;;;;;17.17;13.23;;;;;;;;;;5034735;28;20553;-69
2023/04/18 12:24:22;;;;;;;16.23;12.47;;;;;;;;;;5017469;28;20630;-69
2023/04/18 12:26:49;;;;;;;18.33;14.30;;;;;;;;;;5016931;28;20207;-69
2023/04/18 12:29:16;;;;;;;18.93;12.33;;;;;;;;;;5034721;28;20700;-69
2023/04/18 12:31:42;;;;;;;18.00;12.90;;;;;;;;;;5016894;28;20286;-69
2023/04/18 12:34:08;;;;;;;14.50;11.00;;;;;;;;;;5016904;28;20187;-69
2023/04/18 12:36:34;;;;;;;17.17;13.47;;;;;;;;;;5016906;28;20718;-69
2023/04/18 12:39:00;;;;;;;18.30;14.87;;;;;;;;;;5034405;28;20183;-69
2023/04/18 12:41:26;;;;;;;17.87;12.70;;;;;;;;;;5016622;28;20203;-69
2023/04/18 12:43:52;;;;;;;13.37;9.03;;;;;;;;;;5016243;28;20259;-69
2023/04/18 12:46:18;;;;;;;16.60;12.93;;;;;;;;;;5034867;28;20185;-69
2023/04/18 12:48:44;;;;;;;16.33;14.00;;;;;;;;;;5016607;28;20249;-69
2023/04/18 12:51:10;;;;;;;17.27;13.53;;;;;;;;;;5016551;28;20210;-69
2023/04/18 12:53:36;;;;;;;17.87;13.80;;;;;;;;;;5016620;28;20183;-70
2023/04/18 12:56:02;;;;;;;22.57;13.10;;;;;;;;;;5034124;28;20191;-70
2023/04/18 12:58:28;;;;;;;11.17;9.80;;;;;;;;;;5034560;28;20179;-70
2023/04/18 13:00:55;;;;;;;15.00;11.77;;;;;;;;;;5034068;28;20253;-69
2023/04/18 13:03:21;;;;;;;9.83;8.73;;;;;;;;;;5034132;28;20203;-69
2023/04/18 13:05:47;;;;;;;21.50;10.60;;;;;;;;;;5016517;28;20361;-69
2023/04/18 13:08:13;;;;;;;16.63;11.90;;;;;;;;;;5034985;28;20288;-69
2023/04/18 13:10:39;;;;;;;16.60;11.30;;;;;;;;;;5017009;28;20203;-69
2023/04/18 13:13:05;;;;;;;16.77;14.63;;;;;;;;;;5017362;28;20211;-69
2023/04/18 13:15:31;;;;;;;14.00;12.60;;;;;;;;;;5054571;23;20231;-68
2023/04/18 13:18:03;;;;;;;14.27;11.37;;;;;;;;;;5014372;28;20668;-68
2023/04/18 13:20:28;;;;;;;15.63;12.23;;;;;;;;;;4996912;28;20585;-67
2023/04/18 13:22:55;;;;;;;19.00;16.60;;;;;;;;;;5014385;28;20179;-67
2023/04/18 13:25:21;;;;;;;21.40;16.20;;;;;;;;;;4996678;28;20227;-68
2023/04/18 13:27:48;;;;;;;17.37;14.33;;;;;;;;;;5014093;28;20183;-68
2023/04/18 13:30:15;;;;;;;26.43;17.93;;;;;;;;;;5013945;28;20171;-68
2023/04/18 13:32:42;;;;;;;20.67;18.37;;;;;;;;;;5013923;28;20302;-69
2023/04/18 13:35:09;;;;;;;20.17;15.77;;;;;;;;;;5014709;28;20570;-68
2023/04/18 13:37:35;;;;;;;21.53;18.20;;;;;;;;;;5013822;28;20274;-67
2023/04/18 13:40:04;;;;;;;15.93;13.03;;;;;;;;;;5013659;28;20176;-67
2023/04/18 13:42:30;;;;;;;18.33;13.57;;;;;;;;;;4996253;28;20187;-68
2023/04/18 13:44:56;;;;;;;20.37;15.20;;;;;;;;;;5013657;28;20271;-70
2023/04/18 13:47:22;;;;;;;18.07;13.67;;;;;;;;;;5013693;28;20198;-67
2023/04/18 13:49:49;;;;;;;15.57;11.10;;;;;;;;;;4995949;28;20214;-68
2023/04/18 13:52:14;;;;;;;18.73;15.67;;;;;;;;;;5013602;28;20221;-69
2023/04/18 13:54:40;;;;;;;17.07;12.93;;;;;;;;;;4995291;28;20597;-68
2023/04/18 13:57:10;;;;;;;18.37;13.20;;;;;;;;;;5013558;28;20686;-67
2023/04/18 13:59:37;;;;;;;17.63;15.07;;;;;;;;;;5013633;28;20195;-67
2023/04/18 14:02:03;;;;;;;18.87;14.10;;;;;;;;;;5013950;28;20193;-67
2023/04/18 14:04:30;;;;;;;14.43;11.30;;;;;;;;;;5013722;28;20669;-68
2023/04/18 14:06:56;;;;;;;18.60;13.80;;;;;;;;;;4996038;28;20295;-67
2023/04/18 14:09:22;;;;;;;15.17;12.50;;;;;;;;;;5013455;28;20183;-67
2023/04/18 14:11:49;;;;;;;16.00;12.43;;;;;;;;;;5013909;28;20625;-68
2023/04/18 14:14:16;;;;;;;18.13;11.77;;;;;;;;;;4996082;28;20206;-68
2023/04/18 14:16:42;;;;;;;19.37;14.53;;;;;;;;;;5013743;28;20241;-68
2023/04/18 14:19:07;;;;;;;14.00;10.53;;;;;;;;;;5013792;28;20549;-68
2023/04/18 14:21:33;;;;;;;13.47;11.73;;;;;;;;;;5013731;28;20183;-69
2023/04/18 14:23:59;;;;;;;18.80;13.67;;;;;;;;;;5013478;28;20555;-67